sensor_id;sensor_type;location;lat;lon;timestamp;P1;durP1;ratioP1;P2;durP2;ratioP2
3643;SDS011;1838;50.742;7.158;2023-08-20T00:00:32;14.90;;;11.83;;
3643;SDS011;1838;50.742;7.158;2023-08-20T00:02:58;14.50;;;10.90;;
3643;SDS011;1838;50.742;7.158;2023-08-20T00:05:32;18.13;;;11.00;;
3643;SDS011;1838;50.742;7.158;2023-08-20T00:07:58;17.70;;;10.47;;
3643;SDS011;1838;50.742;7.158;2023-08-20T00:10:24;14.47;;;10.40;;
3643;SDS011;1838;50.742;7.158;2023-08-20T00:12:49;12.10;;;10.20;;
3643;SDS011;1838;50.742;7.158;2023-08-20T00:15:15;17.23;;;10.40;;
3643;SDS011;1838;50.742;7.158;2023-08-20T00:17:40;12.97;;;9.80;;
3643;SDS011;1838;50.742;7.158;2023-08-20T00:20:07;14.80;;;10.60;;
3643;SDS011;1838;50.742;7.158;2023-08-20T00:22:43;15.97;;;9.80;;
3643;SDS011;1838;50.742;7.158;2023-08-20T00:25:10;12.50;;;11.20;;
3643;SDS011;1838;50.742;7.158;2023-08-20T00:27:37;15.43;;;10.50;;
3643;SDS011;1838;50.742;7.158;2023-08-20T00:30:07;19.43;;;11.47;;
3643;SDS011;1838;50.742;7.158;2023-08-20T00:32:33;15.10;;;10.60;;
3643;SDS011;1838;50.742;7.158;2023-08-20T00:34:59;15.40;;;10.63;;
3643;SDS011;1838;50.742;7.158;2023-08-20T00:37:25;13.93;;;8.93;;
3643;SDS011;1838;50.742;7.158;2023-08-20T00:39:50;11.17;;;9.27;;
3643;SDS011;1838;50.742;7.158;2023-08-20T00:42:16;11.80;;;9.90;;
3643;SDS011;1838;50.742;7.158;2023-08-20T00:44:42;13.80;;;9.60;;
3643;SDS011;1838;50.742;7.158;2023-08-20T00:47:11;18.87;;;11.30;;
3643;SDS011;1838;50.742;7.158;2023-08-20T00:49:41;11.47;;;10.27;;
3643;SDS011;1838;50.742;7.158;2023-08-20T00:52:09;15.60;;;9.70;;
3643;SDS011;1838;50.742;7.158;2023-08-20T00:54:37;17.83;;;10.30;;
3643;SDS011;1838;50.742;7.158;2023-08-20T00:57:05;14.57;;;10.10;;
3643;SDS011;1838;50.742;7.158;2023-08-20T00:59:32;13.67;;;9.50;;
3643;SDS011;1838;50.742;7.158;2023-08-20T01:01:58;10.90;;;9.80;;
3643;SDS011;1838;50.742;7.158;2023-08-20T01:04:23;10.73;;;9.63;;
3643;SDS011;1838;50.742;7.158;2023-08-20T01:06:51;11.70;;;9.77;;
3643;SDS011;1838;50.742;7.158;2023-08-20T01:12:05;12.70;;;10.53;;
3643;SDS011;1838;50.742;7.158;2023-08-20T01:14:31;11.90;;;9.90;;
3643;SDS011;1838;50.742;7.158;2023-08-20T01:16:57;15.77;;;11.00;;
3643;SDS011;1838;50.742;7.158;2023-08-20T01:19:22;14.93;;;12.10;;
3643;SDS011;1838;50.742;7.158;2023-08-20T01:21:55;19.03;;;10.90;;
3643;SDS011;1838;50.742;7.158;2023-08-20T01:30:26;14.90;;;12.40;;
3643;SDS011;1838;50.742;7.158;2023-08-20T01:32:53;16.40;;;11.53;;
3643;SDS011;1838;50.742;7.158;2023-08-20T01:35:19;18.30;;;11.70;;
3643;SDS011;1838;50.742;7.158;2023-08-20T01:37:44;23.90;;;12.63;;
3643;SDS011;1838;50.742;7.158;2023-08-20T01:40:10;20.73;;;13.77;;
3643;SDS011;1838;50.742;7.158;2023-08-20T01:42:37;15.83;;;11.60;;
3643;SDS011;1838;50.742;7.158;2023-08-20T01:45:03;14.30;;;12.10;;
3643;SDS011;1838;50.742;7.158;2023-08-20T01:47:30;22.00;;;11.90;;
3643;SDS011;1838;50.742;7.158;2023-08-20T01:49:56;20.90;;;12.77;;
3643;SDS011;1838;50.742;7.158;2023-08-20T01:52:21;21.23;;;12.50;;
3643;SDS011;1838;50.742;7.158;2023-08-20T01:54:48;12.83;;;11.43;;
3643;SDS011;1838;50.742;7.158;2023-08-20T01:57:13;18.50;;;13.17;;
3643;SDS011;1838;50.742;7.158;2023-08-20T01:59:39;15.47;;;13.23;;
3643;SDS011;1838;50.742;7.158;2023-08-20T02:02:05;18.50;;;13.17;;
3643;SDS011;1838;50.742;7.158;2023-08-20T02:04:31;15.33;;;11.83;;
3643;SDS011;1838;50.742;7.158;2023-08-20T02:06:57;18.43;;;13.03;;
3643;SDS011;1838;50.742;7.158;2023-08-20T02:09:22;15.00;;;12.20;;
3643;SDS011;1838;50.742;7.158;2023-08-20T02:11:49;13.47;;;10.93;;
3643;SDS011;1838;50.742;7.158;2023-08-20T02:14:15;23.23;;;13.20;;
3643;SDS011;1838;50.742;7.158;2023-08-20T02:16:40;12.60;;;11.40;;
3643;SDS011;1838;50.742;7.158;2023-08-20T02:19:06;29.13;;;11.80;;
3643;SDS011;1838;50.742;7.158;2023-08-20T02:21:32;19.50;;;13.07;;
3643;SDS011;1838;50.742;7.158;2023-08-20T02:23:58;18.93;;;12.47;;
3643;SDS011;1838;50.742;7.158;2023-08-20T02:26:24;13.93;;;11.57;;
3643;SDS011;1838;50.742;7.158;2023-08-20T02:28:49;13.57;;;11.50;;
3643;SDS011;1838;50.742;7.158;2023-08-20T02:31:15;14.67;;;11.10;;
3643;SDS011;1838;50.742;7.158;2023-08-20T02:33:40;12.97;;;11.40;;
3643;SDS011;1838;50.742;7.158;2023-08-20T02:36:06;13.23;;;11.43;;
3643;SDS011;1838;50.742;7.158;2023-08-20T02:38:31;13.13;;;11.00;;
3643;SDS011;1838;50.742;7.158;2023-08-20T02:40:57;15.60;;;11.77;;
3643;SDS011;1838;50.742;7.158;2023-08-20T02:43:22;13.70;;;11.37;;
3643;SDS011;1838;50.742;7.158;2023-08-20T02:45:48;12.97;;;11.50;;
3643;SDS011;1838;50.742;7.158;2023-08-20T02:48:14;16.53;;;10.57;;
3643;SDS011;1838;50.742;7.158;2023-08-20T02:50:40;12.67;;;9.80;;
3643;SDS011;1838;50.742;7.158;2023-08-20T02:53:05;16.73;;;12.07;;
3643;SDS011;1838;50.742;7.158;2023-08-20T02:55:31;13.43;;;10.50;;
3643;SDS011;1838;50.742;7.158;2023-08-20T02:57:58;18.50;;;11.50;;
3643;SDS011;1838;50.742;7.158;2023-08-20T03:00:23;14.47;;;11.57;;
3643;SDS011;1838;50.742;7.158;2023-08-20T03:02:49;14.00;;;9.50;;
3643;SDS011;1838;50.742;7.158;2023-08-20T03:05:14;13.63;;;9.30;;
3643;SDS011;1838;50.742;7.158;2023-08-20T03:07:40;14.93;;;10.53;;
3643;SDS011;1838;50.742;7.158;2023-08-20T03:10:06;12.90;;;11.17;;
3643;SDS011;1838;50.742;7.158;2023-08-20T03:12:32;11.13;;;9.67;;
3643;SDS011;1838;50.742;7.158;2023-08-20T03:14:58;12.80;;;10.57;;
3643;SDS011;1838;50.742;7.158;2023-08-20T03:17:24;13.90;;;10.03;;
3643;SDS011;1838;50.742;7.158;2023-08-20T03:19:55;11.77;;;9.87;;
3643;SDS011;1838;50.742;7.158;2023-08-20T03:22:23;16.20;;;10.60;;
3643;SDS011;1838;50.742;7.158;2023-08-20T03:24:49;13.57;;;11.07;;
3643;SDS011;1838;50.742;7.158;2023-08-20T03:27:15;15.23;;;13.13;;
3643;SDS011;1838;50.742;7.158;2023-08-20T03:29:41;12.93;;;11.63;;
3643;SDS011;1838;50.742;7.158;2023-08-20T03:32:06;11.97;;;10.77;;
3643;SDS011;1838;50.742;7.158;2023-08-20T03:34:32;11.33;;;9.33;;
3643;SDS011;1838;50.742;7.158;2023-08-20T03:36:58;11.60;;;10.40;;
3643;SDS011;1838;50.742;7.158;2023-08-20T03:39:23;11.70;;;10.50;;
3643;SDS011;1838;50.742;7.158;2023-08-20T03:41:49;22.60;;;11.30;;
3643;SDS011;1838;50.742;7.158;2023-08-20T03:44:15;12.80;;;11.50;;
3643;SDS011;1838;50.742;7.158;2023-08-20T03:46:41;17.03;;;12.17;;
3643;SDS011;1838;50.742;7.158;2023-08-20T03:49:06;13.73;;;12.00;;
3643;SDS011;1838;50.742;7.158;2023-08-20T03:51:32;13.60;;;11.83;;
3643;SDS011;1838;50.742;7.158;2023-08-20T03:53:57;17.67;;;10.33;;
3643;SDS011;1838;50.742;7.158;2023-08-20T03:56:23;13.10;;;11.00;;
3643;SDS011;1838;50.742;7.158;2023-08-20T03:58:48;19.07;;;12.77;;
3643;SDS011;1838;50.742;7.158;2023-08-20T04:01:14;13.60;;;11.07;;
3643;SDS011;1838;50.742;7.158;2023-08-20T04:03:39;20.23;;;12.97;;
3643;SDS011;1838;50.742;7.158;2023-08-20T04:06:05;16.47;;;12.10;;
3643;SDS011;1838;50.742;7.158;2023-08-20T04:08:31;13.53;;;12.17;;
3643;SDS011;1838;50.742;7.158;2023-08-20T04:10:57;15.97;;;10.90;;
3643;SDS011;1838;50.742;7.158;2023-08-20T04:13:23;17.47;;;11.23;;
3643;SDS011;1838;50.742;7.158;2023-08-20T04:15:48;14.27;;;10.90;;
3643;SDS011;1838;50.742;7.158;2023-08-20T04:18:14;20.37;;;12.27;;
3643;SDS011;1838;50.742;7.158;2023-08-20T04:20:39;13.80;;;10.83;;
3643;SDS011;1838;50.742;7.158;2023-08-20T04:23:05;13.13;;;11.73;;
3643;SDS011;1838;50.742;7.158;2023-08-20T04:25:30;20.57;;;14.90;;
3643;SDS011;1838;50.742;7.158;2023-08-20T04:27:56;16.30;;;13.70;;
3643;SDS011;1838;50.742;7.158;2023-08-20T04:30:21;22.27;;;15.10;;
3643;SDS011;1838;50.742;7.158;2023-08-20T04:32:47;22.73;;;14.50;;
3643;SDS011;1838;50.742;7.158;2023-08-20T04:35:13;19.13;;;14.30;;
3643;SDS011;1838;50.742;7.158;2023-08-20T04:37:38;16.27;;;13.67;;
3643;SDS011;1838;50.742;7.158;2023-08-20T04:40:04;18.63;;;13.13;;
3643;SDS011;1838;50.742;7.158;2023-08-20T04:42:31;23.33;;;15.07;;
3643;SDS011;1838;50.742;7.158;2023-08-20T04:44:56;20.33;;;13.77;;
3643;SDS011;1838;50.742;7.158;2023-08-20T04:47:22;18.73;;;14.40;;
3643;SDS011;1838;50.742;7.158;2023-08-20T04:49:48;14.97;;;13.33;;
3643;SDS011;1838;50.742;7.158;2023-08-20T04:52:13;19.90;;;17.10;;
3643;SDS011;1838;50.742;7.158;2023-08-20T04:54:38;21.37;;;16.13;;
3643;SDS011;1838;50.742;7.158;2023-08-20T04:57:04;20.10;;;15.53;;
3643;SDS011;1838;50.742;7.158;2023-08-20T04:59:30;21.40;;;15.50;;
3643;SDS011;1838;50.742;7.158;2023-08-20T05:01:55;16.90;;;14.47;;
3643;SDS011;1838;50.742;7.158;2023-08-20T05:04:21;20.03;;;14.90;;
3643;SDS011;1838;50.742;7.158;2023-08-20T05:06:47;22.73;;;14.50;;
3643;SDS011;1838;50.742;7.158;2023-08-20T05:09:12;22.83;;;14.97;;
3643;SDS011;1838;50.742;7.158;2023-08-20T05:11:38;20.00;;;14.60;;
3643;SDS011;1838;50.742;7.158;2023-08-20T05:14:04;17.07;;;12.93;;
3643;SDS011;1838;50.742;7.158;2023-08-20T05:16:29;19.33;;;15.30;;
3643;SDS011;1838;50.742;7.158;2023-08-20T05:18:55;19.43;;;14.37;;
3643;SDS011;1838;50.742;7.158;2023-08-20T05:21:20;18.83;;;14.90;;
3643;SDS011;1838;50.742;7.158;2023-08-20T05:23:45;17.23;;;14.10;;
3643;SDS011;1838;50.742;7.158;2023-08-20T05:26:11;17.20;;;14.30;;
3643;SDS011;1838;50.742;7.158;2023-08-20T05:28:36;20.03;;;14.50;;
3643;SDS011;1838;50.742;7.158;2023-08-20T05:31:02;18.87;;;15.20;;
3643;SDS011;1838;50.742;7.158;2023-08-20T05:33:27;22.23;;;15.50;;
3643;SDS011;1838;50.742;7.158;2023-08-20T05:35:53;18.40;;;15.03;;
3643;SDS011;1838;50.742;7.158;2023-08-20T05:38:18;22.70;;;15.67;;
3643;SDS011;1838;50.742;7.158;2023-08-20T05:40:44;20.23;;;14.60;;
3643;SDS011;1838;50.742;7.158;2023-08-20T05:43:09;18.33;;;13.70;;
3643;SDS011;1838;50.742;7.158;2023-08-20T05:45:35;26.63;;;13.50;;
3643;SDS011;1838;50.742;7.158;2023-08-20T05:48:00;18.27;;;14.67;;
3643;SDS011;1838;50.742;7.158;2023-08-20T05:50:26;18.90;;;14.60;;
3643;SDS011;1838;50.742;7.158;2023-08-20T05:52:52;14.37;;;12.83;;
3643;SDS011;1838;50.742;7.158;2023-08-20T05:55:17;19.10;;;12.57;;
3643;SDS011;1838;50.742;7.158;2023-08-20T05:57:43;18.17;;;13.63;;
3643;SDS011;1838;50.742;7.158;2023-08-20T06:00:09;18.57;;;13.40;;
3643;SDS011;1838;50.742;7.158;2023-08-20T06:02:35;16.90;;;13.40;;
3643;SDS011;1838;50.742;7.158;2023-08-20T06:05:02;15.30;;;13.03;;
3643;SDS011;1838;50.742;7.158;2023-08-20T06:07:29;14.33;;;11.10;;
3643;SDS011;1838;50.742;7.158;2023-08-20T06:09:55;15.10;;;12.70;;
3643;SDS011;1838;50.742;7.158;2023-08-20T06:12:21;14.60;;;11.83;;
3643;SDS011;1838;50.742;7.158;2023-08-20T06:14:47;16.17;;;12.57;;
3643;SDS011;1838;50.742;7.158;2023-08-20T06:17:13;16.23;;;12.37;;
3643;SDS011;1838;50.742;7.158;2023-08-20T06:19:39;15.47;;;12.60;;
3643;SDS011;1838;50.742;7.158;2023-08-20T06:22:04;14.30;;;11.63;;
3643;SDS011;1838;50.742;7.158;2023-08-20T06:24:30;13.57;;;12.17;;
3643;SDS011;1838;50.742;7.158;2023-08-20T06:26:55;21.10;;;11.47;;
3643;SDS011;1838;50.742;7.158;2023-08-20T06:29:21;15.87;;;12.77;;
3643;SDS011;1838;50.742;7.158;2023-08-20T06:31:49;15.07;;;12.37;;
3643;SDS011;1838;50.742;7.158;2023-08-20T06:34:16;13.87;;;12.47;;
3643;SDS011;1838;50.742;7.158;2023-08-20T06:36:41;17.40;;;12.20;;
3643;SDS011;1838;50.742;7.158;2023-08-20T06:39:07;13.10;;;11.73;;
3643;SDS011;1838;50.742;7.158;2023-08-20T06:41:33;19.03;;;11.87;;
3643;SDS011;1838;50.742;7.158;2023-08-20T06:43:59;16.27;;;11.87;;
3643;SDS011;1838;50.742;7.158;2023-08-20T06:46:25;16.20;;;11.80;;
3643;SDS011;1838;50.742;7.158;2023-08-20T06:48:50;21.17;;;12.90;;
3643;SDS011;1838;50.742;7.158;2023-08-20T06:51:18;16.27;;;12.27;;
3643;SDS011;1838;50.742;7.158;2023-08-20T06:53:45;21.73;;;14.37;;
3643;SDS011;1838;50.742;7.158;2023-08-20T06:56:10;20.83;;;13.40;;
3643;SDS011;1838;50.742;7.158;2023-08-20T06:58:37;17.17;;;14.53;;
3643;SDS011;1838;50.742;7.158;2023-08-20T07:01:04;16.30;;;13.47;;
3643;SDS011;1838;50.742;7.158;2023-08-20T07:03:40;24.63;;;13.90;;
3643;SDS011;1838;50.742;7.158;2023-08-20T07:06:06;17.40;;;12.10;;
3643;SDS011;1838;50.742;7.158;2023-08-20T07:08:34;18.70;;;12.77;;
3643;SDS011;1838;50.742;7.158;2023-08-20T07:11:00;21.90;;;14.53;;
3643;SDS011;1838;50.742;7.158;2023-08-20T07:13:25;15.00;;;13.47;;
3643;SDS011;1838;50.742;7.158;2023-08-20T07:15:51;12.67;;;11.40;;
3643;SDS011;1838;50.742;7.158;2023-08-20T07:18:17;16.07;;;13.57;;
3643;SDS011;1838;50.742;7.158;2023-08-20T07:20:43;15.70;;;14.03;;
3643;SDS011;1838;50.742;7.158;2023-08-20T07:23:09;17.57;;;13.60;;
3643;SDS011;1838;50.742;7.158;2023-08-20T07:25:38;23.37;;;13.43;;
3643;SDS011;1838;50.742;7.158;2023-08-20T07:28:08;21.03;;;13.43;;
3643;SDS011;1838;50.742;7.158;2023-08-20T07:30:36;17.33;;;14.40;;
3643;SDS011;1838;50.742;7.158;2023-08-20T07:33:02;23.93;;;15.60;;
3643;SDS011;1838;50.742;7.158;2023-08-20T07:35:28;18.07;;;14.10;;
3643;SDS011;1838;50.742;7.158;2023-08-20T07:37:54;23.90;;;15.57;;
3643;SDS011;1838;50.742;7.158;2023-08-20T07:40:19;20.00;;;14.93;;
3643;SDS011;1838;50.742;7.158;2023-08-20T07:42:45;20.07;;;13.80;;
3643;SDS011;1838;50.742;7.158;2023-08-20T07:45:11;18.53;;;14.87;;
3643;SDS011;1838;50.742;7.158;2023-08-20T07:47:37;19.43;;;15.17;;
3643;SDS011;1838;50.742;7.158;2023-08-20T07:50:03;15.97;;;13.90;;
3643;SDS011;1838;50.742;7.158;2023-08-20T07:52:30;16.77;;;12.87;;
3643;SDS011;1838;50.742;7.158;2023-08-20T07:54:56;16.77;;;12.87;;
3643;SDS011;1838;50.742;7.158;2023-08-20T07:57:21;16.40;;;14.00;;
3643;SDS011;1838;50.742;7.158;2023-08-20T07:59:48;18.03;;;14.10;;
3643;SDS011;1838;50.742;7.158;2023-08-20T08:02:16;21.60;;;14.97;;
3643;SDS011;1838;50.742;7.158;2023-08-20T08:04:42;17.30;;;13.57;;
3643;SDS011;1838;50.742;7.158;2023-08-20T08:07:09;21.80;;;14.10;;
3643;SDS011;1838;50.742;7.158;2023-08-20T08:09:35;15.77;;;13.13;;
3643;SDS011;1838;50.742;7.158;2023-08-20T08:12:00;17.57;;;12.20;;
3643;SDS011;1838;50.742;7.158;2023-08-20T08:14:27;16.67;;;12.20;;
3643;SDS011;1838;50.742;7.158;2023-08-20T08:16:52;16.83;;;12.77;;
3643;SDS011;1838;50.742;7.158;2023-08-20T08:19:18;14.10;;;12.60;;
3643;SDS011;1838;50.742;7.158;2023-08-20T08:21:45;16.07;;;13.77;;
3643;SDS011;1838;50.742;7.158;2023-08-20T08:24:11;17.07;;;12.70;;
3643;SDS011;1838;50.742;7.158;2023-08-20T08:26:37;13.27;;;11.30;;
3643;SDS011;1838;50.742;7.158;2023-08-20T08:29:03;12.77;;;11.57;;
3643;SDS011;1838;50.742;7.158;2023-08-20T08:31:29;12.47;;;11.27;;
3643;SDS011;1838;50.742;7.158;2023-08-20T08:33:54;15.33;;;11.50;;
3643;SDS011;1838;50.742;7.158;2023-08-20T08:36:20;15.10;;;12.37;;
3643;SDS011;1838;50.742;7.158;2023-08-20T08:38:46;11.83;;;9.90;;
3643;SDS011;1838;50.742;7.158;2023-08-20T08:41:12;13.33;;;11.87;;
3643;SDS011;1838;50.742;7.158;2023-08-20T08:43:41;11.10;;;10.03;;
3643;SDS011;1838;50.742;7.158;2023-08-20T08:46:07;10.90;;;9.60;;
3643;SDS011;1838;50.742;7.158;2023-08-20T08:48:37;10.93;;;9.93;;
3643;SDS011;1838;50.742;7.158;2023-08-20T08:51:05;10.67;;;9.17;;
3643;SDS011;1838;50.742;7.158;2023-08-20T08:53:31;9.97;;;9.00;;
3643;SDS011;1838;50.742;7.158;2023-08-20T08:55:58;12.70;;;9.73;;
3643;SDS011;1838;50.742;7.158;2023-08-20T08:58:24;10.10;;;8.70;;
3643;SDS011;1838;50.742;7.158;2023-08-20T09:00:50;9.60;;;7.90;;
3643;SDS011;1838;50.742;7.158;2023-08-20T09:03:16;10.47;;;9.43;;
3643;SDS011;1838;50.742;7.158;2023-08-20T09:05:45;10.33;;;9.43;;
3643;SDS011;1838;50.742;7.158;2023-08-20T09:08:18;10.33;;;9.20;;
3643;SDS011;1838;50.742;7.158;2023-08-20T09:10:45;10.17;;;8.63;;
3643;SDS011;1838;50.742;7.158;2023-08-20T09:13:11;10.97;;;8.00;;
3643;SDS011;1838;50.742;7.158;2023-08-20T09:15:36;8.20;;;7.50;;
3643;SDS011;1838;50.742;7.158;2023-08-20T09:18:02;8.27;;;7.10;;
3643;SDS011;1838;50.742;7.158;2023-08-20T09:20:35;7.83;;;7.10;;
3643;SDS011;1838;50.742;7.158;2023-08-20T09:23:01;7.33;;;6.73;;
3643;SDS011;1838;50.742;7.158;2023-08-20T09:25:27;6.90;;;5.97;;
3643;SDS011;1838;50.742;7.158;2023-08-20T09:27:53;7.10;;;6.40;;
3643;SDS011;1838;50.742;7.158;2023-08-20T09:30:19;7.37;;;6.77;;
3643;SDS011;1838;50.742;7.158;2023-08-20T09:33:03;9.83;;;6.03;;
3643;SDS011;1838;50.742;7.158;2023-08-20T09:35:36;7.53;;;6.90;;
3643;SDS011;1838;50.742;7.158;2023-08-20T09:38:04;6.53;;;6.03;;
3643;SDS011;1838;50.742;7.158;2023-08-20T09:40:30;7.00;;;6.23;;
3643;SDS011;1838;50.742;7.158;2023-08-20T09:42:56;7.30;;;5.63;;
3643;SDS011;1838;50.742;7.158;2023-08-20T09:45:25;6.30;;;5.70;;
3643;SDS011;1838;50.742;7.158;2023-08-20T09:47:57;8.03;;;6.00;;
3643;SDS011;1838;50.742;7.158;2023-08-20T09:50:27;9.00;;;6.57;;
3643;SDS011;1838;50.742;7.158;2023-08-20T09:52:55;7.93;;;6.33;;
3643;SDS011;1838;50.742;7.158;2023-08-20T09:55:24;5.87;;;5.23;;
3643;SDS011;1838;50.742;7.158;2023-08-20T09:57:54;7.57;;;5.83;;
3643;SDS011;1838;50.742;7.158;2023-08-20T10:00:21;7.47;;;6.73;;
3643;SDS011;1838;50.742;7.158;2023-08-20T10:02:47;7.23;;;6.53;;
3643;SDS011;1838;50.742;7.158;2023-08-20T10:05:14;11.33;;;6.80;;
3643;SDS011;1838;50.742;7.158;2023-08-20T10:07:40;11.03;;;6.67;;
3643;SDS011;1838;50.742;7.158;2023-08-20T10:10:08;7.90;;;7.20;;
3643;SDS011;1838;50.742;7.158;2023-08-20T10:12:37;8.97;;;7.47;;
3643;SDS011;1838;50.742;7.158;2023-08-20T10:15:04;7.63;;;6.93;;
3643;SDS011;1838;50.742;7.158;2023-08-20T10:17:32;8.10;;;7.17;;
3643;SDS011;1838;50.742;7.158;2023-08-20T10:19:59;7.13;;;6.43;;
3643;SDS011;1838;50.742;7.158;2023-08-20T10:22:36;7.40;;;6.70;;
3643;SDS011;1838;50.742;7.158;2023-08-20T10:25:06;8.20;;;6.50;;
3643;SDS011;1838;50.742;7.158;2023-08-20T10:27:34;6.73;;;6.03;;
3643;SDS011;1838;50.742;7.158;2023-08-20T10:30:01;7.43;;;6.03;;
3643;SDS011;1838;50.742;7.158;2023-08-20T10:32:45;6.97;;;6.40;;
3643;SDS011;1838;50.742;7.158;2023-08-20T10:35:22;7.83;;;7.10;;
3643;SDS011;1838;50.742;7.158;2023-08-20T10:43:25;7.33;;;6.70;;
3643;SDS011;1838;50.742;7.158;2023-08-20T10:46:15;7.50;;;6.67;;
3643;SDS011;1838;50.742;7.158;2023-08-20T10:48:43;6.83;;;6.23;;
3643;SDS011;1838;50.742;7.158;2023-08-20T10:51:19;7.93;;;6.97;;
3643;SDS011;1838;50.742;7.158;2023-08-20T10:59:23;10.40;;;6.57;;
3643;SDS011;1838;50.742;7.158;2023-08-20T11:01:57;7.50;;;6.90;;
3643;SDS011;1838;50.742;7.158;2023-08-20T11:04:24;8.70;;;7.73;;
3643;SDS011;1838;50.742;7.158;2023-08-20T11:06:53;7.03;;;6.43;;
3643;SDS011;1838;50.742;7.158;2023-08-20T11:09:21;6.90;;;6.40;;
3643;SDS011;1838;50.742;7.158;2023-08-20T11:11:47;8.27;;;7.50;;
3643;SDS011;1838;50.742;7.158;2023-08-20T11:14:13;7.83;;;7.13;;
3643;SDS011;1838;50.742;7.158;2023-08-20T11:16:40;8.77;;;7.63;;
3643;SDS011;1838;50.742;7.158;2023-08-20T11:19:07;7.50;;;6.80;;
3643;SDS011;1838;50.742;7.158;2023-08-20T11:21:35;7.20;;;6.53;;
3643;SDS011;1838;50.742;7.158;2023-08-20T11:24:03;8.10;;;7.37;;
3643;SDS011;1838;50.742;7.158;2023-08-20T11:26:29;8.67;;;7.23;;
3643;SDS011;1838;50.742;7.158;2023-08-20T11:28:55;7.53;;;6.90;;
3643;SDS011;1838;50.742;7.158;2023-08-20T11:31:21;8.90;;;8.00;;
3643;SDS011;1838;50.742;7.158;2023-08-20T11:33:46;9.50;;;8.13;;
3643;SDS011;1838;50.742;7.158;2023-08-20T11:36:14;8.47;;;7.67;;
3643;SDS011;1838;50.742;7.158;2023-08-20T11:38:41;7.43;;;6.73;;
3643;SDS011;1838;50.742;7.158;2023-08-20T11:41:07;8.53;;;7.30;;
3643;SDS011;1838;50.742;7.158;2023-08-20T11:43:33;8.93;;;8.00;;
3643;SDS011;1838;50.742;7.158;2023-08-20T11:45:58;8.60;;;7.80;;
3643;SDS011;1838;50.742;7.158;2023-08-20T11:48:24;13.83;;;7.40;;
3643;SDS011;1838;50.742;7.158;2023-08-20T11:50:50;7.00;;;6.27;;
3643;SDS011;1838;50.742;7.158;2023-08-20T11:53:17;7.53;;;6.93;;
3643;SDS011;1838;50.742;7.158;2023-08-20T11:55:47;7.60;;;6.90;;
3643;SDS011;1838;50.742;7.158;2023-08-20T11:58:13;10.00;;;7.20;;
3643;SDS011;1838;50.742;7.158;2023-08-20T12:00:39;11.10;;;8.73;;
3643;SDS011;1838;50.742;7.158;2023-08-20T12:03:05;18.70;;;8.60;;
3643;SDS011;1838;50.742;7.158;2023-08-20T12:05:30;8.03;;;7.40;;
3643;SDS011;1838;50.742;7.158;2023-08-20T12:07:57;8.63;;;6.87;;
3643;SDS011;1838;50.742;7.158;2023-08-20T12:10:24;6.97;;;6.40;;
3643;SDS011;1838;50.742;7.158;2023-08-20T12:12:50;6.87;;;6.37;;
3643;SDS011;1838;50.742;7.158;2023-08-20T12:15:17;7.90;;;7.30;;
3643;SDS011;1838;50.742;7.158;2023-08-20T12:17:43;8.63;;;7.73;;
3643;SDS011;1838;50.742;7.158;2023-08-20T12:20:26;8.97;;;8.00;;
3643;SDS011;1838;50.742;7.158;2023-08-20T12:22:52;10.90;;;9.37;;
3643;SDS011;1838;50.742;7.158;2023-08-20T12:25:18;11.40;;;9.37;;
3643;SDS011;1838;50.742;7.158;2023-08-20T12:27:44;9.70;;;8.70;;
3643;SDS011;1838;50.742;7.158;2023-08-20T12:30:10;9.30;;;8.50;;
3643;SDS011;1838;50.742;7.158;2023-08-20T12:32:36;9.60;;;8.77;;
3643;SDS011;1838;50.742;7.158;2023-08-20T12:35:01;12.37;;;8.87;;
3643;SDS011;1838;50.742;7.158;2023-08-20T12:37:27;8.77;;;7.97;;
3643;SDS011;1838;50.742;7.158;2023-08-20T12:39:53;9.87;;;8.97;;
3643;SDS011;1838;50.742;7.158;2023-08-20T12:42:18;9.07;;;8.20;;
3643;SDS011;1838;50.742;7.158;2023-08-20T12:44:44;9.17;;;8.37;;
3643;SDS011;1838;50.742;7.158;2023-08-20T12:47:10;8.47;;;7.80;;
3643;SDS011;1838;50.742;7.158;2023-08-20T12:49:35;8.60;;;7.90;;
3643;SDS011;1838;50.742;7.158;2023-08-20T12:52:01;9.70;;;8.80;;
3643;SDS011;1838;50.742;7.158;2023-08-20T12:54:26;12.53;;;8.53;;
3643;SDS011;1838;50.742;7.158;2023-08-20T12:56:52;11.03;;;10.03;;
3643;SDS011;1838;50.742;7.158;2023-08-20T12:59:17;9.90;;;8.77;;
3643;SDS011;1838;50.742;7.158;2023-08-20T13:01:43;11.13;;;10.03;;
3643;SDS011;1838;50.742;7.158;2023-08-20T13:04:08;9.83;;;8.83;;
3643;SDS011;1838;50.742;7.158;2023-08-20T13:06:35;10.40;;;9.50;;
3643;SDS011;1838;50.742;7.158;2023-08-20T13:09:02;10.30;;;9.50;;
3643;SDS011;1838;50.742;7.158;2023-08-20T13:11:28;10.90;;;9.90;;
3643;SDS011;1838;50.742;7.158;2023-08-20T13:13:56;11.87;;;10.87;;
3643;SDS011;1838;50.742;7.158;2023-08-20T13:16:22;12.03;;;10.93;;
3643;SDS011;1838;50.742;7.158;2023-08-20T13:18:48;12.30;;;11.10;;
3643;SDS011;1838;50.742;7.158;2023-08-20T13:21:14;13.20;;;10.70;;
3643;SDS011;1838;50.742;7.158;2023-08-20T13:23:39;11.50;;;10.60;;
3643;SDS011;1838;50.742;7.158;2023-08-20T13:26:05;12.20;;;11.10;;
3643;SDS011;1838;50.742;7.158;2023-08-20T13:28:31;12.70;;;11.60;;
3643;SDS011;1838;50.742;7.158;2023-08-20T13:30:57;11.57;;;10.47;;
3643;SDS011;1838;50.742;7.158;2023-08-20T13:33:23;12.70;;;11.57;;
3643;SDS011;1838;50.742;7.158;2023-08-20T13:35:48;12.10;;;10.90;;
3643;SDS011;1838;50.742;7.158;2023-08-20T13:38:14;12.30;;;11.30;;
3643;SDS011;1838;50.742;7.158;2023-08-20T13:40:40;12.00;;;10.90;;
3643;SDS011;1838;50.742;7.158;2023-08-20T13:43:05;12.30;;;11.13;;
3643;SDS011;1838;50.742;7.158;2023-08-20T13:45:31;10.80;;;10.00;;
3643;SDS011;1838;50.742;7.158;2023-08-20T13:47:57;13.37;;;11.50;;
3643;SDS011;1838;50.742;7.158;2023-08-20T13:50:22;10.13;;;9.43;;
3643;SDS011;1838;50.742;7.158;2023-08-20T13:52:48;11.40;;;10.40;;
3643;SDS011;1838;50.742;7.158;2023-08-20T13:55:13;10.20;;;9.30;;
3643;SDS011;1838;50.742;7.158;2023-08-20T13:57:40;10.50;;;9.50;;
3643;SDS011;1838;50.742;7.158;2023-08-20T14:00:06;12.20;;;10.67;;
3643;SDS011;1838;50.742;7.158;2023-08-20T14:02:34;10.80;;;9.87;;
3643;SDS011;1838;50.742;7.158;2023-08-20T14:05:00;11.37;;;10.37;;
3643;SDS011;1838;50.742;7.158;2023-08-20T14:07:26;11.17;;;10.13;;
3643;SDS011;1838;50.742;7.158;2023-08-20T14:09:51;11.03;;;10.03;;
3643;SDS011;1838;50.742;7.158;2023-08-20T14:12:17;12.00;;;10.77;;
3643;SDS011;1838;50.742;7.158;2023-08-20T14:14:42;10.97;;;10.10;;
3643;SDS011;1838;50.742;7.158;2023-08-20T14:17:08;10.87;;;9.97;;
3643;SDS011;1838;50.742;7.158;2023-08-20T14:19:34;11.73;;;10.80;;
3643;SDS011;1838;50.742;7.158;2023-08-20T14:21:59;13.30;;;11.93;;
3643;SDS011;1838;50.742;7.158;2023-08-20T14:24:25;10.30;;;9.20;;
3643;SDS011;1838;50.742;7.158;2023-08-20T14:26:50;18.43;;;10.13;;
3643;SDS011;1838;50.742;7.158;2023-08-20T14:29:16;9.97;;;9.17;;
3643;SDS011;1838;50.742;7.158;2023-08-20T14:31:41;12.37;;;9.63;;
3643;SDS011;1838;50.742;7.158;2023-08-20T14:34:07;10.23;;;9.23;;
3643;SDS011;1838;50.742;7.158;2023-08-20T14:36:33;10.60;;;9.60;;
3643;SDS011;1838;50.742;7.158;2023-08-20T14:38:58;10.30;;;9.40;;
3643;SDS011;1838;50.742;7.158;2023-08-20T14:41:24;10.50;;;8.67;;
3643;SDS011;1838;50.742;7.158;2023-08-20T14:43:49;10.70;;;8.90;;
3643;SDS011;1838;50.742;7.158;2023-08-20T14:46:15;10.73;;;9.73;;
3643;SDS011;1838;50.742;7.158;2023-08-20T14:48:40;10.87;;;8.57;;
3643;SDS011;1838;50.742;7.158;2023-08-20T14:51:07;9.30;;;8.50;;
3643;SDS011;1838;50.742;7.158;2023-08-20T14:53:33;9.50;;;8.60;;
3643;SDS011;1838;50.742;7.158;2023-08-20T14:55:59;9.50;;;8.60;;
3643;SDS011;1838;50.742;7.158;2023-08-20T14:58:24;8.53;;;7.73;;
3643;SDS011;1838;50.742;7.158;2023-08-20T15:00:50;9.80;;;8.93;;
3643;SDS011;1838;50.742;7.158;2023-08-20T15:03:15;9.23;;;8.40;;
3643;SDS011;1838;50.742;7.158;2023-08-20T15:05:41;9.07;;;8.30;;
3643;SDS011;1838;50.742;7.158;2023-08-20T15:08:07;8.80;;;7.90;;
3643;SDS011;1838;50.742;7.158;2023-08-20T15:10:33;9.27;;;8.37;;